Time;durP1;ratioP1;P1;durP2;ratioP2;P2;SDS_P1;SDS_P2;PMS_P1;PMS_P2;Temp;Humidity;BMP_temperature;BMP_pressure;BME280_temperature;BME280_humidity;BME280_pressure;Samples;Min_cycle;Max_cycle;Signal;HPM_P1;HPM_P2
2023/03/14 00:00:05;;;;;;;;;2.00;0.00;;;;;12.80;65.67;98690.94;5053447;28;45606;-73
2023/03/14 00:02:31;;;;;;;;;1.00;0.50;;;;;12.77;65.85;98676.34;5035683;28;47020;-74
2023/03/14 00:04:56;;;;;;;;;2.50;1.00;;;;;12.76;66.08;98679.94;5051898;28;45567;-75
2023/03/14 00:07:24;;;;;;;;;0.75;0.75;;;;;12.80;66.05;98675.97;5053632;28;45456;-73
2023/03/14 00:09:49;;;;;;;;;0.00;0.00;;;;;12.74;65.94;98684.53;5053206;28;45526;-76
2023/03/14 00:15:36;;;;;;;;;2.00;1.00;;;;;12.63;66.28;98679.69;5060706;28;45819;-76
2023/03/14 00:18:02;;;;;;;;;0.75;0.00;;;;;12.56;66.44;98697.94;5053674;28;45543;-74
2023/03/14 00:20:27;;;;;;;;;0.00;0.00;;;;;12.58;66.86;98698.56;5052727;28;47375;-76
2023/03/14 00:22:52;;;;;;;;;0.50;0.00;;;;;12.58;67.16;98688.06;5052477;28;46564;-74
2023/03/14 00:25:18;;;;;;;;;1.00;0.00;;;;;12.56;67.30;98673.47;5052762;28;45636;-75
2023/03/14 00:27:43;;;;;;;;;0.50;0.00;;;;;12.55;67.36;98667.38;5053299;28;45567;-74
2023/03/14 00:30:10;;;;;;;;;0.00;0.00;;;;;12.56;67.10;98671.66;5052782;28;46955;-75
2023/03/14 00:32:35;;;;;;;;;0.25;0.00;;;;;12.52;67.14;98659.03;5053048;28;46414;-75
2023/03/14 00:35:01;;;;;;;;;0.00;0.00;;;;;12.46;67.28;98655.28;5052729;28;45681;-75
2023/03/14 00:37:27;;;;;;;;;0.00;0.00;;;;;12.53;67.22;98668.53;5053072;28;45562;-74
2023/03/14 00:39:52;;;;;;;;;1.25;0.00;;;;;12.58;67.17;98653.06;5052490;28;46671;-75
2023/03/14 00:45:40;;;;;;;;;0.00;0.00;;;;;12.56;67.54;98641.94;5056312;28;45753;-77
2023/03/14 00:48:05;;;;;;;;;1.00;0.00;;;;;12.58;67.76;98648.66;5056607;28;45783;-77
2023/03/14 00:50:31;;;;;;;;;0.75;0.00;;;;;12.58;67.78;98672.28;5056206;28;45511;-78
2023/03/14 00:52:56;;;;;;;;;0.75;0.00;;;;;12.56;68.14;98650.66;5055399;28;45699;-78
2023/03/14 00:55:22;;;;;;;;;1.25;0.00;;;;;12.57;67.84;98651.47;5055730;28;45588;-79
2023/03/14 01:01:13;;;;;;;;;1.00;0.00;;;;;12.53;68.24;98660.66;5055553;28;45611;-80
2023/03/14 01:03:38;;;;;;;;;2.00;0.00;;;;;12.52;68.48;98659.81;5055635;28;46243;-78
2023/03/14 01:06:12;;;;;;;;;0.25;0.00;;;;;12.53;68.62;98660.66;5055580;28;45646;-81
2023/03/14 01:08:38;;;;;;;;;1.50;0.00;;;;;12.52;68.38;98659.03;5056230;28;45532;-77
2023/03/14 01:11:13;;;;;;;;;1.00;0.00;;;;;12.47;68.57;98649.00;5055285;28;46535;-77
2023/03/14 01:13:39;;;;;;;;;1.00;0.25;;;;;12.46;68.60;98638.69;5057489;28;47054;-77
2023/03/14 01:16:07;;;;;;;;;1.00;0.00;;;;;12.50;68.32;98661.81;5058092;28;45719;-77
2023/03/14 01:18:34;;;;;;;;;0.00;0.00;;;;;12.49;68.55;98662.81;5058722;28;45553;-76
2023/03/14 01:21:01;;;;;;;;;1.00;0.00;;;;;12.49;68.62;98656.72;5059752;28;46731;-78
2023/03/14 01:23:26;;;;;;;;;1.00;1.00;;;;;12.44;68.58;98644.13;5056596;28;45875;-78
2023/03/14 01:25:52;;;;;;;;;1.00;0.00;;;;;12.46;68.57;98652.66;5055724;28;45675;-78
2023/03/14 01:31:38;;;;;;;;;1.25;0.00;;;;;12.39;68.61;98638.53;5055096;28;45587;-79
2023/03/14 01:34:04;;;;;;;;;1.00;0.00;;;;;12.42;69.06;98661.00;5055466;28;46294;-79
2023/03/14 01:36:29;;;;;;;;;1.00;0.00;;;;;12.32;69.37;98655.94;5054150;28;45723;-76
2023/03/14 01:38:56;;;;;;;;;1.00;0.00;;;;;12.32;69.36;98648.06;5055174;28;45520;-78
2023/03/14 01:41:24;;;;;;;;;1.00;0.00;;;;;12.31;69.72;98645.66;5054708;28;46643;-76
2023/03/14 01:47:11;;;;;;;;;0.00;0.00;;;;;12.21;70.09;98624.81;5056585;28;45790;-77
2023/03/14 01:49:36;;;;;;;;;0.00;0.00;;;;;12.32;69.97;98652.50;5058089;28;45531;-77
2023/03/14 01:52:06;;;;;;;;;1.00;0.25;;;;;12.29;70.18;98650.22;5056019;28;46488;-75
2023/03/14 01:54:35;;;;;;;;;1.00;0.00;;;;;12.31;70.29;98645.66;5056123;28;46301;-76
2023/03/14 01:57:28;;;;;;;;;0.75;0.00;;;;;12.30;70.36;98654.50;5057421;28;45762;-75
2023/03/14 02:00:15;;;;;;;;;0.00;0.00;;;;;12.26;70.56;98651.38;5037355;28;45552;-76
2023/03/14 02:02:50;;;;;;;;;0.00;0.00;;;;;12.27;70.48;98666.16;5054971;28;47193;-78
2023/03/14 02:05:20;;;;;;;;;0.00;0.00;;;;;12.29;70.65;98674.69;5054854;28;46256;-76
2023/03/14 02:07:51;;;;;;;;;0.75;0.00;;;;;12.24;70.83;98653.38;5054890;28;45738;-77
2023/03/14 02:10:19;;;;;;;;;1.00;0.00;;;;;12.33;70.55;98662.03;5054843;28;45781;-78
2023/03/14 02:12:46;;;;;;;;;0.00;0.00;;;;;12.33;70.46;98670.72;5054536;28;46411;-76
2023/03/14 02:15:12;;;;;;;;;0.00;0.00;;;;;12.36;70.70;98659.88;5054919;28;45945;-78
2023/03/14 02:17:42;;;;;;;;;0.00;0.00;;;;;12.39;70.43;98664.81;5055629;28;45504;-77
2023/03/14 02:20:24;;;;;;;;;0.00;0.00;;;;;12.43;70.75;98673.16;5055795;28;45651;-75
2023/03/14 02:22:49;;;;;;;;;0.00;0.00;;;;;12.44;70.96;98664.28;5054680;28;46652;-76
2023/03/14 02:25:30;;;;;;;;;0.00;0.00;;;;;12.44;70.89;98666.94;5054548;28;46047;-75
2023/03/14 02:27:55;;;;;;;;;0.00;0.00;;;;;12.40;71.12;98663.00;5054726;28;45639;-77
2023/03/14 02:30:25;;;;;;;;;0.00;0.00;;;;;12.35;71.23;98652.19;5053340;28;45449;-76
2023/03/14 02:33:05;;;;;;;;;0.00;0.00;;;;;12.37;71.00;98650.19;5053558;28;46477;-74
2023/03/14 02:35:41;;;;;;;;;0.00;0.00;;;;;12.34;71.10;98647.91;5054568;28;45528;-78
2023/03/14 02:38:22;;;;;;;;;0.00;0.00;;;;;12.33;71.08;98648.91;5054152;28;45622;-78
2023/03/14 02:40:47;;;;;;;;;0.00;0.00;;;;;12.32;71.70;98648.06;5054330;28;45771;-80
2023/03/14 02:43:13;;;;;;;;;0.00;0.00;;;;;12.31;71.33;98643.00;5054314;28;46422;-77
2023/03/14 02:45:44;;;;;;;;;0.00;0.00;;;;;12.33;71.49;98654.16;5054026;28;47122;-78
2023/03/14 02:48:26;;;;;;;;;0.00;0.00;;;;;12.36;72.15;98643.34;5054678;28;45765;-78
2023/03/14 02:50:55;;;;;;;;;0.00;0.00;;;;;12.31;72.32;98637.75;5054405;28;45697;-74
2023/03/14 02:53:27;;;;;;;;;1.00;0.00;;;;;12.33;72.56;98639.22;5054012;28;45782;-77
2023/03/14 02:55:52;;;;;;;;;0.00;0.00;;;;;12.33;72.49;98641.03;5053919;28;46987;-80
2023/03/14 02:58:19;;;;;;;;;0.00;0.00;;;;;12.25;72.61;98626.13;5053882;28;45544;-77
2023/03/14 03:00:44;;;;;;;;;0.00;0.00;;;;;12.27;72.62;98623.31;5054017;28;45665;-78
2023/03/14 03:03:09;;;;;;;;;0.00;0.00;;;;;12.22;72.94;98629.06;5054083;28;45539;-75
2023/03/14 03:05:35;;;;;;;;;0.00;0.00;;;;;12.27;72.97;98639.88;5054015;28;46323;-76
2023/03/14 03:08:01;;;;;;;;;0.25;0.00;;;;;12.27;73.09;98639.88;5056037;28;45557;-76
2023/03/14 03:10:27;;;;;;;;;0.00;0.00;;;;;12.26;73.11;98651.38;5054247;28;45592;-78
2023/03/14 03:12:53;;;;;;;;;0.00;0.00;;;;;12.26;73.03;98648.75;5054674;28;46403;-78
2023/03/14 03:19:20;;;;;;;;;0.00;0.00;;;;;12.28;73.25;98643.34;5058537;27;46013;-75
2023/03/14 03:21:46;;;;;;;;;0.00;0.00;;;;;12.28;73.46;98645.97;5055807;28;45662;-78
2023/03/14 03:24:11;;;;;;;;;0.00;0.00;;;;;12.28;73.42;98649.41;5054356;28;47178;-77
2023/03/14 03:26:37;;;;;;;;;0.00;0.00;;;;;12.25;73.76;98649.75;5053363;28;45614;-76
2023/03/14 03:29:02;;;;;;;;;0.00;0.00;;;;;12.23;73.79;98649.09;5053563;28;45511;-77
2023/03/14 03:31:28;;;;;;;;;0.00;0.00;;;;;12.25;73.86;98655.00;5053634;28;45655;-75
2023/03/14 03:33:54;;;;;;;;;0.00;0.00;;;;;12.23;74.20;98658.78;5053513;28;45646;-75
2023/03/14 03:36:24;;;;;;;;;0.00;0.00;;;;;12.24;73.97;98663.03;5053240;28;47125;-74
2023/03/14 03:38:50;;;;;;;;;0.00;0.00;;;;;12.21;74.24;98666.81;5053658;28;45739;-76
2023/03/14 03:41:15;;;;;;;;;0.00;0.00;;;;;12.21;74.32;98661.56;5052934;28;45690;-76
2023/03/14 03:43:41;;;;;;;;;0.00;0.00;;;;;12.17;74.23;98668.13;5053140;28;47232;-74
2023/03/14 03:46:07;;;;;;;;;0.00;0.00;;;;;12.21;74.07;98658.94;5054396;28;45690;-75
2023/03/14 03:48:34;;;;;;;;;0.00;0.00;;;;;12.18;74.37;98675.03;5054871;28;45579;-76
2023/03/14 03:50:59;;;;;;;;;0.00;0.00;;;;;12.21;74.25;98674.69;5054453;28;45723;-76
2023/03/14 03:53:25;;;;;;;;;0.00;0.00;;;;;12.17;74.12;98668.97;5054189;28;46185;-76
2023/03/14 03:55:52;;;;;;;;;0.50;0.00;;;;;12.24;74.07;98665.66;5052410;28;46330;-74
2023/03/14 03:58:17;;;;;;;;;0.00;0.00;;;;;12.25;74.18;98665.50;5053212;28;45575;-75
2023/03/14 04:04:04;;;;;;;;;0.00;0.00;;;;;12.26;73.88;98677.63;5053137;28;45624;-77
2023/03/14 04:06:30;;;;;;;;;0.00;0.00;;;;;12.26;73.92;98676.81;5053056;28;46075;-78
2023/03/14 04:08:55;;;;;;;;;0.00;0.00;;;;;12.23;73.90;98682.41;5053223;28;45711;-75
2023/03/14 04:11:20;;;;;;;;;0.00;0.00;;;;;12.16;73.94;98674.38;5053165;28;45519;-75
2023/03/14 04:13:46;;;;;;;;;0.00;0.00;;;;;12.17;74.24;98684.72;5035148;28;45633;-77
2023/03/14 04:19:33;;;;;;;;;0.00;0.00;;;;;12.12;74.38;98678.31;5062620;27;45752;-79
2023/03/14 04:22:00;;;;;;;;;0.00;0.00;;;;;12.21;74.61;98716.69;5057388;28;45578;-76
2023/03/14 04:24:25;;;;;;;;;0.00;0.00;;;;;12.18;74.94;98709.97;5056125;28;45556;-76
2023/03/14 04:26:52;;;;;;;;;0.00;0.00;;;;;12.15;75.50;98718.16;5057129;28;46109;-78
2023/03/14 04:29:18;;;;;;;;;0.00;0.00;;;;;12.10;75.80;98724.91;5057425;28;45543;-76
2023/03/14 04:31:43;;;;;;;;;0.00;0.00;;;;;12.09;76.05;98726.69;5057609;28;45532;-75
2023/03/14 04:34:08;;;;;;;;;0.00;0.00;;;;;12.07;76.52;98730.50;5056001;28;46316;-77
2023/03/14 04:36:34;;;;;;;;;0.00;0.00;;;;;12.02;76.59;98724.91;5056382;28;45625;-75
2023/03/14 04:38:59;;;;;;;;;0.00;0.00;;;;;12.01;76.36;98739.03;5056323;28;45901;-76
2023/03/14 04:41:24;;;;;;;;;0.00;0.00;;;;;11.97;76.41;98743.78;5056804;28;45910;-75
2023/03/14 04:43:50;;;;;;;;;0.00;0.00;;;;;11.94;77.12;98743.28;5056248;28;47386;-76
2023/03/14 04:49:36;;;;;;;;;0.00;0.00;;;;;11.85;76.79;98799.34;5056324;28;45687;-77
2023/03/14 04:52:02;;;;;;;;;0.00;0.00;;;;;11.77;77.47;98819.34;5056947;28;45537;-75
2023/03/14 04:54:28;;;;;;;;;0.00;0.00;;;;;11.70;76.79;98915.41;5038313;28;48493;-75
2023/03/14 04:56:53;;;;;;;;;0.00;0.00;;;;;11.58;76.43;98861.56;5056050;28;46296;-77
2023/03/14 04:59:19;;;;;;;;;0.00;0.00;;;;;11.53;76.40;98882.19;5056922;28;45729;-78
2023/03/14 05:05:06;;;;;;;;;1.00;0.00;;;;;11.12;76.05;98909.97;5055802;28;45632;-76
2023/03/14 05:07:32;;;;;;;;;0.00;0.00;;;;;11.02;75.68;98903.19;5056683;28;45588;-77
2023/03/14 05:09:58;;;;;;;;;0.00;0.00;;;;;10.83;75.33;98889.34;5073375;28;45756;-77
2023/03/14 05:12:23;;;;;;;;;0.00;0.00;;;;;10.72;74.93;98922.81;5058426;28;45487;-77
2023/03/14 05:20:55;;;;;;;;;0.75;0.75;;;;;10.51;73.93;98946.69;5061114;28;45878;-77
2023/03/14 05:23:21;;;;;;;;;1.00;1.00;;;;;10.46;74.30;98948.94;5056088;28;45532;-78
2023/03/14 05:25:46;;;;;;;;;1.25;1.25;;;;;10.46;73.45;98965.47;5055503;28;46336;-76
2023/03/14 05:28:11;;;;;;;;;1.00;0.00;;;;;10.45;72.91;98968.22;5056986;28;46302;-76
2023/03/14 05:30:37;;;;;;;;;2.25;0.00;;;;;10.45;73.71;98970.84;5056220;28;45479;-76
2023/03/14 05:33:02;;;;;;;;;3.50;0.25;;;;;10.44;72.50;98979.66;5055793;28;45711;-75
2023/03/14 05:35:27;;;;;;;;;1.00;1.00;;;;;10.40;73.42;99005.31;5055345;28;47422;-76
2023/03/14 05:37:53;;;;;;;;;1.50;0.75;;;;;10.34;73.06;99007.69;5055558;28;46219;-76
2023/03/14 05:40:18;;;;;;;;;1.00;0.75;;;;;10.33;72.35;99012.09;5055148;28;45678;-76
2023/03/14 05:42:43;;;;;;;;;1.00;1.00;;;;;10.30;71.72;99030.72;5055439;28;45645;-79
2023/03/14 05:45:09;;;;;;;;;3.00;1.00;;;;;10.29;72.16;99041.34;5055705;28;46388;-80
2023/03/14 05:51:10;;;;;;;;;1.00;1.00;;;;;10.08;71.33;99038.94;5060510;28;45579;-79
2023/03/14 05:53:35;;;;;;;;;0.25;0.00;;;;;10.10;69.49;99098.00;5062320;28;45510;-78
2023/03/14 05:56:01;;;;;;;;;2.75;1.00;;;;;10.07;69.90;99107.94;5059697;28;45701;-79
2023/03/14 05:58:26;;;;;;;;;1.50;1.00;;;;;10.04;69.24;99111.63;5058102;28;46334;-78
2023/03/14 06:00:51;;;;;;;;;1.00;1.00;;;;;10.00;69.66;99091.97;5057262;28;45660;-78
2023/03/14 06:03:17;;;;;;;;;3.00;1.00;;;;;10.01;68.64;99126.81;5056813;28;45924;-79
2023/03/14 06:05:43;;;;;;;;;1.00;0.00;;;;;10.01;68.59;99126.81;5055868;28;45720;-80
2023/03/14 06:08:09;;;;;;;;;0.75;0.50;;;;;9.97;67.77;99183.81;5055815;28;46644;-77
2023/03/14 06:10:36;;;;;;;;;2.00;1.00;;;;;9.85;65.93;99156.16;5055162;28;45665;-78
2023/03/14 06:13:01;;;;;;;;;1.50;1.25;;;;;9.79;65.69;99138.41;5055698;28;45696;-75
2023/03/14 06:15:27;;;;;;;;;2.50;2.00;;;;;9.78;65.44;99196.09;5055428;28;47740;-78
2023/03/14 06:21:14;;;;;;;;;1.50;1.25;;;;;9.64;65.25;99168.56;5058764;28;45697;-77
2023/03/14 06:23:39;;;;;;;;;2.00;2.00;;;;;9.67;65.04;99192.66;5055230;28;45669;-77
2023/03/14 06:26:05;;;;;;;;;1.25;0.75;;;;;9.59;64.49;99212.63;5054779;28;47203;-76
2023/03/14 06:28:31;;;;;;;;;3.50;1.75;;;;;9.60;64.30;99222.13;5054392;28;46368;-75
2023/03/14 06:30:56;;;;;;;;;2.75;2.00;;;;;9.57;64.24;99220.59;5054405;28;45536;-78
2023/03/14 06:36:43;;;;;;;;;4.50;1.50;;;;;9.46;63.83;99244.25;5054474;28;46068;-75
2023/03/14 06:39:09;;;;;;;;;3.00;1.50;;;;;9.48;64.13;99270.25;5053676;28;46070;-74
2023/03/14 06:41:34;;;;;;;;;1.75;1.00;;;;;9.44;63.88;99276.72;5054591;28;45676;-74
2023/03/14 06:43:59;;;;;;;;;1.50;1.00;;;;;9.38;63.99;99253.72;5054552;28;45523;-74
2023/03/14 06:46:24;;;;;;;;;2.00;1.00;;;;;9.47;63.97;99292.13;5053882;28;46339;-73
2023/03/14 06:48:50;;;;;;;;;2.00;2.00;;;;;9.46;64.26;99299.13;5053551;28;46031;-74
2023/03/14 06:51:15;;;;;;;;;2.00;1.00;;;;;9.49;63.83;99292.81;5053649;28;45543;-74
2023/03/14 06:53:41;;;;;;;;;4.00;1.50;;;;;9.38;63.72;99301.59;5054257;28;45773;-75
2023/03/14 06:56:07;;;;;;;;;3.00;1.00;;;;;9.48;63.62;99320.75;5054027;28;47274;-75
2023/03/14 06:58:32;;;;;;;;;5.00;1.75;;;;;9.48;62.78;99351.28;5053927;28;47072;-74
2023/03/14 07:00:58;;;;;;;;;2.00;1.75;;;;;9.46;63.14;99325.28;5054012;28;45628;-74
2023/03/14 07:06:46;;;;;;;;;1.50;1.50;;;;;9.42;62.95;99355.25;5054599;28;45601;-74
2023/03/14 07:09:14;;;;;;;;;1.00;0.00;;;;;9.36;62.31;99368.84;5055273;28;46081;-74
2023/03/14 07:11:39;;;;;;;;;1.00;1.00;;;;;9.39;62.43;99386.06;5055285;28;45758;-75
2023/03/14 07:14:05;;;;;;;;;2.00;1.00;;;;;9.35;62.64;99372.44;5054642;28;45527;-74
2023/03/14 07:16:32;;;;;;;;;2.25;1.25;;;;;9.35;62.16;99351.50;5035914;28;47388;-74
2023/03/14 07:22:19;;;;;;;;;1.50;1.00;;;;;9.28;61.17;99393.03;5060237;27;45808;-75
2023/03/14 07:24:44;;;;;;;;;2.00;0.75;;;;;9.22;61.20;99385.72;5052357;28;45891;-74
2023/03/14 07:27:10;;;;;;;;;3.00;1.00;;;;;9.21;60.16;99440.72;5050701;28;46694;-75
2023/03/14 07:29:35;;;;;;;;;0.25;0.00;;;;;9.22;60.79;99424.09;5051777;28;46730;-75
2023/03/14 07:32:00;;;;;;;;;0.75;0.00;;;;;9.18;60.89;99420.91;5052259;28;45652;-74
2023/03/14 07:34:26;;;;;;;;;1.00;0.00;;;;;9.20;60.63;99431.22;5052530;28;45587;-74
2023/03/14 07:36:51;;;;;;;;;0.75;0.75;;;;;9.02;60.54;99388.34;5052338;28;45637;-75
2023/03/14 07:39:16;;;;;;;;;0.25;0.00;;;;;9.13;60.45;99441.34;5051728;28;46067;-73
2023/03/14 07:41:42;;;;;;;;;2.00;0.00;;;;;9.08;59.77;99495.78;5051957;28;45703;-74
2023/03/14 07:44:07;;;;;;;;;2.00;1.00;;;;;9.14;60.28;99458.69;5052332;28;45780;-75
2023/03/14 07:46:32;;;;;;;;;1.25;1.00;;;;;9.19;60.00;99468.75;5034102;28;46467;-74
2023/03/14 07:52:19;;;;;;;;;0.75;0.50;;;;;9.23;59.71;99504.97;5056061;28;45660;-73
2023/03/14 07:54:44;;;;;;;;;1.25;1.00;;;;;9.19;59.54;99489.66;5071869;28;45526;-75
2023/03/14 07:57:10;;;;;;;;;2.50;1.00;;;;;9.25;59.48;99518.72;5056744;28;45554;-73
2023/03/14 07:59:35;;;;;;;;;1.00;1.00;;;;;9.25;59.72;99512.69;5056354;28;46873;-73
2023/03/14 08:02:00;;;;;;;;;1.00;1.00;;;;;9.31;59.56;99511.34;5056795;28;45623;-74
2023/03/14 08:07:47;;;;;;;;;1.00;0.50;;;;;9.35;59.42;99531.88;5055854;28;46080;-75
2023/03/14 08:10:20;;;;;;;;;4.50;2.00;;;;;9.43;59.20;99542.53;5055755;28;45631;-74
2023/03/14 08:12:46;;;;;;;;;2.00;1.00;;;;;9.49;59.51;99536.78;5055805;28;45559;-74
2023/03/14 08:15:11;;;;;;;;;3.00;1.00;;;;;9.54;59.14;99565.16;5056156;28;45475;-74
2023/03/14 08:17:36;;;;;;;;;1.50;1.00;;;;;9.52;59.08;99543.53;5055497;28;47302;-74
2023/03/14 08:20:06;;;;;;;;;1.25;0.50;;;;;9.58;58.86;99566.56;5055433;28;46985;-74
2023/03/14 08:22:31;;;;;;;;;1.25;1.00;;;;;9.59;59.36;99571.66;5006101;28;1165851;-74
2023/03/14 08:24:57;;;;;;;;;2.00;0.75;;;;;9.62;59.31;99555.69;5056870;28;45532;-74
2023/03/14 08:27:22;;;;;;;;;1.00;1.00;;;;;9.68;59.06;99578.72;5056682;28;45862;-74
2023/03/14 08:29:47;;;;;;;;;2.00;1.00;;;;;9.73;59.35;99577.50;5055974;28;45863;-74
2023/03/14 08:32:13;;;;;;;;;1.00;1.00;;;;;9.72;59.50;99555.75;5056539;28;45662;-72
2023/03/14 08:37:59;;;;;;;;;0.00;0.00;;;;;9.87;59.63;99596.34;5056279;28;45933;-74
2023/03/14 08:40:25;;;;;;;;;2.00;1.00;;;;;9.92;59.55;99588.91;5071960;28;46564;-73
2023/03/14 08:42:50;;;;;;;;;0.75;0.75;;;;;9.93;59.46;99614.09;5056532;28;45607;-75
2023/03/14 08:45:16;;;;;;;;;1.00;1.00;;;;;9.92;59.29;99629.94;5071488;28;45977;-75
2023/03/14 08:47:43;;;;;;;;;1.00;1.00;;;;;9.92;59.39;99599.38;5056356;28;45653;-74
2023/03/14 08:50:09;;;;;;;;;1.00;1.00;;;;;9.97;59.64;99593.75;5056223;28;46195;-74
2023/03/14 08:52:35;;;;;;;;;0.25;0.00;;;;;10.03;59.69;99599.31;5056290;28;45657;-74
2023/03/14 08:55:00;;;;;;;;;1.00;1.00;;;;;10.13;59.45;99620.28;5056137;28;45931;-73
2023/03/14 08:57:29;;;;;;;;;1.75;0.25;;;;;10.12;59.22;99610.75;5056745;28;46439;-73
2023/03/14 08:59:56;;;;;;;;;2.00;0.00;;;;;10.23;59.17;99626.41;5056461;28;47469;-74
2023/03/14 09:02:23;;;;;;;;;2.25;1.00;;;;;10.29;58.99;99630.31;5055995;28;45784;-74
2023/03/14 09:08:10;;;;;;;;;2.25;1.00;;;;;10.25;58.89;99647.25;5055650;28;45595;-75
2023/03/14 09:10:35;;;;;;;;;1.00;1.00;;;;;10.22;58.84;99627.38;5055442;28;46815;-74
2023/03/14 09:13:00;;;;;;;;;0.50;0.00;;;;;10.29;58.84;99641.59;5055830;28;45700;-74
2023/03/14 09:15:26;;;;;;;;;1.25;1.00;;;;;10.27;58.88;99642.69;5056227;28;45725;-74
2023/03/14 09:17:51;;;;;;;;;1.75;1.00;;;;;10.31;59.10;99657.19;5055893;28;46448;-74
2023/03/14 09:23:38;;;;;;;;;1.00;1.00;;;;;10.31;58.84;99684.16;5063542;27;45858;-73
2023/03/14 09:26:04;;;;;;;;;1.75;1.00;;;;;10.21;58.63;99666.75;5056851;28;45496;-73
2023/03/14 09:28:30;;;;;;;;;1.00;0.25;;;;;10.28;58.47;99687.06;5055593;28;47055;-74
2023/03/14 09:30:55;;;;;;;;;1.75;0.75;;;;;10.24;58.31;99677.81;5056059;28;45861;-74
2023/03/14 09:33:21;;;;;;;;;0.00;0.00;;;;;10.26;58.65;99709.91;5056734;28;45650;-74
2023/03/14 09:35:46;;;;;;;;;1.00;1.00;;;;;10.24;59.05;99700.53;5055586;28;45555;-73
2023/03/14 09:38:12;;;;;;;;;1.00;0.50;;;;;10.23;63.68;99736.34;5037220;28;47235;-73
2023/03/14 09:40:38;;;;;;;;;0.00;0.00;;;;;9.90;65.84;99818.44;5055037;28;47019;-73
2023/03/14 09:43:04;;;;;;;;;0.00;0.00;;;;;9.26;69.46;99773.06;5055649;28;45699;-73
2023/03/14 09:45:33;;;;;;;;;1.00;0.00;;;;;8.74;71.44;99769.31;5055789;28;45645;-74
2023/03/14 09:48:01;;;;;;;;;0.00;0.00;;;;;8.42;71.86;99765.72;5055493;28;45705;-74
2023/03/14 09:53:49;;;;;;;;;0.25;0.25;;;;;8.13;72.11;99767.03;5055509;28;45532;-74
2023/03/14 09:56:26;;;;;;;;;1.75;1.00;;;;;8.15;72.85;99779.00;5055524;28;45433;-74
2023/03/14 09:58:55;;;;;;;;;0.75;0.00;;;;;8.27;73.28;99780.69;5054817;28;47244;-72
2023/03/14 10:01:26;;;;;;;;;2.00;0.00;;;;;8.35;73.72;99793.22;5054886;28;45915;-74
2023/03/14 10:03:55;;;;;;;;;1.00;0.00;;;;;8.37;73.14;99825.22;5037258;28;45617;-73
2023/03/14 10:06:25;;;;;;;;;0.00;0.00;;;;;8.36;74.67;99844.47;5055754;28;45698;-73
2023/03/14 10:08:52;;;;;;;;;0.75;0.00;;;;;8.22;74.50;99835.00;5055877;28;45662;-73
2023/03/14 10:11:18;;;;;;;;;0.75;0.00;;;;;8.12;72.41;99854.06;5055337;28;46349;-74
2023/03/14 10:14:08;;;;;;;;;0.00;0.00;;;;;7.95;72.27;99878.75;5054293;28;45648;-73
2023/03/14 10:16:41;;;;;;;;;1.00;0.00;;;;;7.84;72.61;99928.22;4974394;28;45955;-74
2023/03/14 10:19:11;;;;;;;;;0.00;0.00;;;;;7.70;72.22;99853.59;4973871;28;46449;-72
2023/03/14 10:21:40;;;;;;;;;0.75;0.00;;;;;7.58;72.75;99851.88;4973656;28;45958;-74
2023/03/14 10:24:25;;;;;;;;;0.25;0.00;;;;;7.47;73.19;99857.84;4987041;28;45694;-74
2023/03/14 10:26:58;;;;;;;;;0.00;0.00;;;;;7.42;74.70;99852.13;4992871;28;45549;-74
2023/03/14 10:29:23;;;;;;;;;1.00;0.00;;;;;7.38;74.35;99857.66;4992496;28;47484;-74
2023/03/14 10:32:03;;;;;;;;;0.00;0.00;;;;;7.47;73.93;99860.44;4992476;28;46939;-75
2023/03/14 10:34:37;;;;;;;;;1.25;0.00;;;;;7.45;73.13;99869.31;4992900;28;45813;-74
2023/03/14 10:37:16;;;;;;;;;1.00;0.00;;;;;7.55;73.48;99871.19;4993089;28;45609;-75
2023/03/14 10:39:51;;;;;;;;;0.00;0.00;;;;;7.68;72.96;99878.94;4992208;28;47872;-74
2023/03/14 10:42:24;;;;;;;;;0.00;0.00;;;;;7.78;72.63;99887.78;4992737;28;46081;-75
2023/03/14 10:45:02;;;;;;;;;0.00;0.00;;;;;7.89;71.27;99869.59;4992786;28;45987;-74
2023/03/14 10:47:30;;;;;;;;;1.00;0.00;;;;;8.03;70.93;99905.13;4992865;28;45770;-74
2023/03/14 10:49:57;;;;;;;;;1.25;0.00;;;;;8.17;70.66;99971.94;4992007;28;46807;-75
2023/03/14 10:52:25;;;;;;;;;1.25;0.25;;;;;8.25;70.78;99897.41;4993697;28;47130;-75
2023/03/14 10:54:57;;;;;;;;;0.00;0.00;;;;;8.47;71.83;99987.22;5075035;28;45639;-74
2023/03/14 10:57:23;;;;;;;;;0.50;0.00;;;;;8.39;73.21;99967.72;5074530;28;45878;-75
2023/03/14 10:59:49;;;;;;;;;0.00;0.00;;;;;8.18;73.06;99935.31;5074265;28;45531;-75
2023/03/14 11:02:34;;;;;;;;;0.00;0.00;;;;;7.97;74.34;99905.56;5074139;28;46098;-74
2023/03/14 11:05:21;;;;;;;;;0.00;0.00;;;;;7.85;74.75;99925.50;5074358;28;45655;-73
2023/03/14 11:07:47;;;;;;;;;1.50;0.00;;;;;7.77;74.79;99925.25;5074692;28;45631;-73
2023/03/14 11:10:18;;;;;;;;;0.00;0.00;;;;;7.74;73.92;99951.50;5074126;28;46339;-73
2023/03/14 11:13:02;;;;;;;;;0.00;0.00;;;;;7.75;70.84;99970.59;5074558;28;47418;-73
2023/03/14 11:15:31;;;;;;;;;0.25;0.00;;;;;7.81;71.68;99939.72;5090468;27;45555;-74
2023/03/14 11:18:23;;;;;;;;;0.00;0.00;;;;;7.93;70.83;99940.63;5074710;28;45670;-73
2023/03/14 11:21:08;;;;;;;;;0.50;0.50;;;;;8.07;69.49;99968.34;4992051;28;47448;-72
2023/03/14 11:24:04;;;;;;;;;0.00;0.00;;;;;8.23;68.69;99971.50;4991720;28;46238;-74
2023/03/14 11:26:38;;;;;;;;;0.00;0.00;;;;;8.38;68.35;99945.19;4991755;28;45562;-73
2023/03/14 11:29:37;;;;;;;;;0.00;0.00;;;;;8.57;68.34;99949.06;4991966;28;45575;-73
2023/03/14 11:32:12;;;;;;;;;1.00;0.00;;;;;8.68;67.68;99964.78;4991890;28;45909;-74
2023/03/14 11:38:25;;;;;;;;;0.00;0.00;;;;;9.12;66.25;99945.78;4991694;28;45902;-73
2023/03/14 11:40:53;;;;;;;;;0.00;0.00;;;;;9.26;65.08;99996.06;4933202;28;45592;-74
2023/03/14 11:43:34;;;;;;;;;0.50;0.00;;;;;9.40;62.79;99942.72;4933267;28;46492;-74
2023/03/14 11:46:22;;;;;;;;;0.00;0.00;;;;;9.61;62.03;99929.75;4933093;28;46202;-74
2023/03/14 11:49:00;;;;;;;;;0.00;0.00;;;;;9.78;60.53;99938.91;4913688;28;45820;-73
2023/03/14 11:54:53;;;;;;;;;0.00;0.00;;;;;10.05;59.83;99955.03;4913952;28;45969;-74
2023/03/14 11:57:21;;;;;;;;;0.00;0.00;;;;;10.22;60.22;99958.97;4924321;28;45990;-74
2023/03/14 11:59:46;;;;;;;;;0.00;0.00;;;;;10.36;58.20;99954.31;4952377;28;45802;-73
2023/03/14 12:02:25;;;;;;;;;0.00;0.00;;;;;10.47;57.80;99943.78;4952530;28;45672;-74
2023/03/14 12:05:17;;;;;;;;;0.00;0.00;;;;;10.69;57.97;99945.47;4952283;28;46334;-74
2023/03/14 12:08:09;;;;;;;;;1.00;0.00;;;;;10.84;56.48;99966.97;4952128;28;45751;-74
2023/03/14 12:10:49;;;;;;;;;0.25;0.00;;;;;10.99;58.00;99959.63;4952252;28;45812;-74
2023/03/14 12:13:16;;;;;;;;;2.00;0.00;;;;;11.13;54.29;99991.59;4952543;28;45533;-74
2023/03/14 12:15:50;;;;;;;;;0.25;0.00;;;;;11.23;56.35;100000.34;4952974;28;45714;-74
2023/03/14 12:18:27;;;;;;;;;0.25;0.00;;;;;11.24;58.63;100028.25;5003657;28;46034;-74
2023/03/14 12:21:04;;;;;;;;;0.00;0.00;;;;;11.18;56.72;99980.72;5030903;28;45705;-75
2023/03/14 12:23:57;;;;;;;;;0.00;0.00;;;;;11.21;57.91;99996.22;5014167;28;45785;-75
2023/03/14 12:26:43;;;;;;;;;0.00;0.00;;;;;11.19;55.50;99988.47;5057412;28;45834;-74
2023/03/14 12:29:16;;;;;;;;;0.00;0.00;;;;;11.21;55.84;100004.91;5073243;28;46313;-75
2023/03/14 12:31:44;;;;;;;;;0.00;0.00;;;;;11.19;54.07;99983.22;5071767;28;46569;-73
2023/03/14 12:34:12;;;;;;;;;1.00;0.00;;;;;11.22;53.32;99987.41;5073724;28;45759;-75
2023/03/14 12:36:49;;;;;;;;;1.00;0.00;;;;;11.25;55.07;99997.63;5055309;28;48847;-74
2023/03/14 12:39:33;;;;;;;;;0.00;0.00;;;;;11.25;60.58;99985.34;5076723;28;45771;-75
2023/03/14 12:42:08;;;;;;;;;0.00;0.00;;;;;11.30;55.53;99990.19;5058868;28;45698;-74
2023/03/14 12:44:50;;;;;;;;;1.50;0.00;;;;;11.37;53.58;99996.59;5077137;28;45739;-75
2023/03/14 12:47:19;;;;;;;;;0.00;0.00;;;;;11.45;55.03;99970.53;5074907;28;47645;-75
2023/03/14 12:49:50;;;;;;;;;0.00;0.00;;;;;11.42;53.39;99946.38;5076949;28;46019;-74
2023/03/14 12:52:27;;;;;;;;;0.25;0.00;;;;;11.54;52.38;99988.13;5076902;28;45654;-75
2023/03/14 12:55:24;;;;;;;;;0.00;0.00;;;;;11.56;51.48;99991.44;5076586;28;45503;-74
2023/03/14 12:58:22;;;;;;;;;0.00;0.00;;;;;11.59;54.74;99995.59;4994151;28;47476;-75
2023/03/14 13:00:55;;;;;;;;;0.00;0.00;;;;;11.59;52.77;100006.94;4994098;28;46108;-74
2023/03/14 13:03:27;;;;;;;;;0.50;0.00;;;;;11.58;59.82;99997.41;4994310;28;45748;-74
2023/03/14 13:09:34;;;;;;;;;0.00;0.00;;;;;11.66;56.66;100008.06;4994029;28;45664;-74
2023/03/14 13:12:10;;;;;;;;;1.00;0.00;;;;;11.71;56.21;99995.38;4994089;28;45673;-73